createdAt,value
2023-02-02T00:00:09.310Z,11.99
2023-02-02T00:02:36.681Z,11.59
2023-02-02T00:05:04.297Z,11.56
2023-02-02T00:12:07.834Z,11.72
2023-02-02T00:14:35.038Z,12.10
2023-02-02T00:17:05.050Z,12.13
2023-02-02T00:19:32.440Z,11.95
2023-02-02T00:21:59.677Z,11.87
2023-02-02T00:24:26.915Z,11.86
2023-02-02T00:26:55.694Z,12.01
2023-02-02T00:29:24.670Z,12.21
2023-02-02T00:31:52.287Z,11.62
2023-02-02T00:34:21.567Z,11.96
2023-02-02T00:36:49.664Z,12.08
2023-02-02T00:39:26.791Z,11.69
2023-02-02T00:41:54.471Z,12.03
2023-02-02T00:44:40.748Z,11.98
2023-02-02T00:47:07.880Z,12.24
2023-02-02T00:49:36.352Z,11.96
2023-02-02T00:52:03.332Z,11.95
2023-02-02T00:54:30.559Z,12.05
2023-02-02T00:56:57.605Z,12.18
2023-02-02T00:59:24.681Z,12.10
2023-02-02T01:01:52.045Z,12.28
2023-02-02T01:04:19.115Z,12.28
2023-02-02T01:06:47.653Z,12.00
2023-02-02T01:09:14.617Z,12.11
2023-02-02T01:11:44.783Z,12.03
2023-02-02T01:14:11.915Z,11.96
2023-02-02T01:16:40.724Z,12.10
2023-02-02T01:19:07.774Z,12.02
2023-02-02T01:21:35.098Z,12.33
2023-02-02T01:24:04.817Z,12.17
2023-02-02T01:26:31.943Z,12.09
2023-02-02T01:28:59.017Z,11.76
2023-02-02T01:31:26.447Z,12.04
2023-02-02T01:33:53.708Z,11.89
2023-02-02T01:36:23.407Z,11.96
2023-02-02T01:38:50.981Z,11.98
2023-02-02T01:41:21.907Z,11.90
2023-02-02T01:43:55.061Z,11.92
2023-02-02T01:46:23.959Z,11.91
2023-02-02T01:48:56.990Z,11.83
2023-02-02T01:51:27.768Z,12.20
2023-02-02T01:53:58.134Z,11.92
2023-02-02T01:56:30.900Z,11.94
2023-02-02T01:58:59.020Z,12.17
2023-02-02T02:01:26.840Z,11.79
2023-02-02T02:03:55.006Z,11.87
2023-02-02T02:06:23.134Z,11.99
2023-02-02T02:08:53.801Z,12.02
2023-02-02T02:11:22.169Z,12.36
2023-02-02T02:14:11.623Z,12.40
2023-02-02T02:16:53.086Z,12.30
2023-02-02T02:20:04.876Z,12.02
2023-02-02T02:23:07.122Z,11.97
2023-02-02T02:26:17.773Z,12.21
2023-02-02T02:29:18.382Z,12.00
2023-02-02T02:32:01.357Z,12.00
2023-02-02T02:34:44.277Z,12.06
2023-02-02T02:37:16.787Z,11.89
2023-02-02T02:39:50.887Z,12.03
2023-02-02T02:42:22.940Z,11.76
2023-02-02T02:44:50.833Z,11.94
2023-02-02T02:47:20.421Z,11.84
2023-02-02T02:49:49.114Z,11.68
2023-02-02T02:52:16.412Z,11.78
2023-02-02T02:54:49.912Z,12.04
2023-02-02T02:57:34.638Z,11.96
2023-02-02T03:00:09.269Z,11.72
2023-02-02T03:02:48.031Z,11.78
2023-02-02T03:05:27.136Z,12.09
2023-02-02T03:08:02.621Z,11.80
2023-02-02T03:10:31.656Z,11.92
2023-02-02T03:12:58.996Z,11.88
2023-02-02T03:15:26.282Z,12.00
2023-02-02T03:17:54.987Z,11.54
2023-02-02T03:20:22.195Z,11.95
2023-02-02T03:22:49.134Z,11.79
2023-02-02T03:25:16.727Z,11.75
2023-02-02T03:27:44.163Z,11.60
2023-02-02T03:30:13.435Z,11.64
2023-02-02T03:32:41.542Z,11.74
2023-02-02T03:35:10.748Z,11.83
2023-02-02T03:37:37.878Z,11.79
2023-02-02T03:40:06.286Z,11.87
2023-02-02T03:42:33.340Z,11.75
2023-02-02T03:45:00.527Z,11.87
2023-02-02T03:47:29.684Z,11.93
2023-02-02T03:49:56.902Z,11.81
2023-02-02T03:52:25.832Z,11.85
2023-02-02T03:54:52.905Z,11.52
2023-02-02T03:57:20.109Z,11.59
2023-02-02T03:59:47.163Z,11.38
2023-02-02T04:02:14.148Z,11.64
2023-02-02T04:04:41.029Z,11.45
2023-02-02T04:07:08.052Z,11.60
2023-02-02T04:09:36.537Z,11.40
2023-02-02T04:12:03.462Z,11.50
2023-02-02T04:14:30.460Z,11.11
2023-02-02T04:16:57.494Z,11.28
2023-02-02T04:19:24.619Z,11.53
2023-02-02T04:21:51.824Z,11.59
2023-02-02T04:24:18.824Z,11.44
2023-02-02T04:26:47.384Z,11.66
2023-02-02T04:29:14.574Z,11.59
2023-02-02T04:31:41.682Z,11.59
2023-02-02T04:34:08.848Z,11.67
2023-02-02T04:36:35.867Z,11.58
2023-02-02T04:39:02.941Z,11.79
2023-02-02T04:41:30.001Z,11.68
2023-02-02T04:43:58.471Z,11.70
2023-02-02T04:46:26.709Z,11.43
2023-02-02T04:48:54.578Z,11.50
2023-02-02T04:51:22.041Z,11.70
2023-02-02T04:53:49.322Z,11.94
2023-02-02T04:56:18.168Z,11.75
2023-02-02T04:58:45.840Z,11.96
2023-02-02T05:01:31.051Z,11.96
2023-02-02T05:03:58.431Z,11.77
2023-02-02T05:06:27.932Z,11.89
2023-02-02T05:08:55.527Z,11.76
2023-02-02T05:11:23.749Z,11.57
2023-02-02T05:13:53.765Z,11.56
2023-02-02T05:16:22.113Z,11.76
2023-02-02T05:18:52.695Z,11.44
2023-02-02T05:24:06.222Z,11.62
2023-02-02T05:34:54.881Z,11.83
2023-02-02T05:37:21.960Z,11.63
2023-02-02T05:51:37.651Z,11.50
2023-02-02T05:56:46.080Z,11.46
2023-02-02T05:59:13.372Z,11.57
2023-02-02T06:04:22.073Z,11.52
2023-02-02T06:18:48.757Z,11.54
2023-02-02T06:21:17.248Z,11.50
2023-02-02T06:23:46.044Z,11.70
2023-02-02T06:26:13.860Z,11.63
2023-02-02T06:28:41.114Z,11.66
2023-02-02T06:31:10.318Z,11.73
2023-02-02T06:33:37.544Z,11.73
2023-02-02T06:44:11.472Z,11.65
2023-02-02T07:00:53.407Z,11.80
2023-02-02T07:03:45.012Z,11.76
2023-02-02T07:12:19.490Z,11.68
2023-02-02T07:20:34.180Z,11.44
2023-02-02T07:23:33.389Z,11.82
2023-02-02T07:26:01.869Z,11.72
2023-02-02T07:28:31.038Z,11.48
2023-02-02T07:30:58.390Z,11.64
2023-02-02T07:33:25.567Z,11.84
2023-02-02T07:35:53.133Z,11.56
2023-02-02T07:38:20.322Z,11.12
2023-02-02T07:40:47.456Z,11.16
2023-02-02T07:43:14.492Z,11.12
2023-02-02T07:45:50.176Z,11.30
2023-02-02T07:48:17.416Z,11.35
2023-02-02T07:50:44.419Z,11.01
2023-02-02T07:53:11.469Z,10.96
2023-02-02T07:55:38.559Z,11.07
2023-02-02T07:58:07.863Z,11.01
2023-02-02T08:00:34.951Z,10.90
2023-02-02T08:03:03.411Z,11.03
2023-02-02T08:05:30.359Z,10.97
2023-02-02T08:07:57.490Z,10.83
2023-02-02T08:10:24.377Z,10.79
2023-02-02T08:12:51.410Z,10.82
2023-02-02T08:15:18.343Z,10.91
2023-02-02T08:17:46.535Z,10.73
2023-02-02T08:23:03.576Z,10.98
2023-02-02T08:25:30.509Z,10.87
2023-02-02T08:28:01.516Z,10.92
2023-02-02T08:30:28.930Z,10.79
2023-02-02T08:32:55.833Z,10.96
2023-02-02T08:35:22.943Z,10.99
2023-02-02T08:37:50.118Z,11.07
2023-02-02T08:40:19.043Z,11.04
2023-02-02T08:42:47.664Z,11.23
2023-02-02T08:46:13.025Z,11.01
2023-02-02T08:48:11.346Z,11.31
2023-02-02T08:50:39.220Z,11.47
2023-02-02T08:53:06.324Z,11.39
2023-02-02T08:55:34.616Z,11.13
2023-02-02T08:58:01.576Z,11.47
2023-02-02T09:00:28.450Z,11.44
2023-02-02T09:02:55.422Z,11.61
2023-02-02T09:05:22.503Z,11.17
2023-02-02T09:08:14.434Z,11.83
2023-02-02T09:10:43.039Z,11.83
2023-02-02T09:13:09.953Z,11.60
2023-02-02T09:29:57.483Z,12.04
2023-02-02T09:32:24.478Z,11.87
2023-02-02T09:34:51.450Z,12.11
2023-02-02T09:37:18.390Z,12.04
2023-02-02T09:39:45.307Z,12.28
2023-02-02T09:50:23.940Z,12.25
2023-02-02T09:52:56.514Z,11.86
2023-02-02T09:55:30.263Z,12.27
2023-02-02T09:58:04.475Z,12.27
2023-02-02T10:00:34.689Z,12.38
2023-02-02T10:03:07.654Z,12.68
2023-02-02T10:05:47.628Z,12.00
2023-02-02T10:08:34.026Z,12.46
2023-02-02T10:11:13.337Z,12.55
2023-02-02T10:13:43.818Z,12.76
2023-02-02T10:16:17.416Z,12.97
2023-02-02T10:18:50.278Z,12.78
2023-02-02T10:21:26.991Z,12.80
2023-02-02T10:23:54.867Z,12.83
2023-02-02T10:26:23.404Z,12.67
2023-02-02T10:29:03.436Z,12.33
2023-02-02T10:31:40.663Z,12.71
2023-02-02T10:34:15.391Z,12.90
2023-02-02T10:36:56.267Z,12.84
2023-02-02T10:39:34.563Z,12.61
2023-02-02T10:42:12.093Z,13.00
2023-02-02T10:44:48.433Z,12.74
2023-02-02T10:47:24.050Z,13.11
2023-02-02T10:50:01.263Z,13.18
2023-02-02T10:52:33.777Z,13.22
2023-02-02T10:55:05.855Z,13.35
2023-02-02T11:04:40.218Z,13.51
2023-02-02T11:07:07.583Z,13.22
2023-02-02T11:09:42.516Z,13.57
2023-02-02T11:12:20.759Z,13.64
2023-02-02T11:14:52.640Z,13.52
2023-02-02T11:19:58.543Z,13.50
2023-02-02T11:37:14.238Z,14.59
2023-02-02T11:39:42.056Z,14.87
2023-02-02T11:42:16.161Z,14.09
2023-02-02T12:43:42.310Z,15.30
2023-02-02T12:57:30.217Z,14.93
2023-02-02T13:00:24.304Z,14.82
2023-02-02T13:03:05.395Z,14.90
2023-02-02T13:11:39.411Z,14.87
2023-02-02T13:20:04.651Z,14.68
2023-02-02T13:34:21.335Z,14.57
2023-02-02T13:39:43.206Z,14.14
2023-02-02T13:42:21.749Z,14.23
2023-02-02T13:48:16.301Z,14.34
2023-02-02T13:50:52.113Z,14.38
2023-02-02T14:21:32.498Z,14.48
2023-02-02T15:18:28.595Z,14.00
2023-02-02T15:48:30.237Z,13.94
2023-02-02T15:53:48.931Z,13.98
2023-02-02T16:02:38.973Z,14.12
2023-02-02T16:13:40.528Z,13.93
2023-02-02T16:16:23.389Z,14.04
2023-02-02T16:21:44.335Z,13.93
2023-02-02T16:39:35.676Z,13.31
2023-02-02T16:47:36.201Z,12.94
2023-02-02T16:50:04.584Z,12.80
2023-02-02T16:52:32.543Z,12.68
2023-02-02T17:00:37.681Z,12.69
2023-02-02T17:06:09.071Z,12.39
2023-02-02T17:08:38.587Z,12.51
2023-02-02T17:32:06.274Z,12.14
2023-02-02T17:37:07.081Z,12.22
2023-02-02T17:39:34.054Z,12.05
2023-02-02T17:42:01.024Z,12.00
2023-02-02T17:44:28.155Z,12.06
2023-02-02T17:46:55.189Z,11.98
2023-02-02T17:49:24.502Z,11.84
2023-02-02T17:51:51.515Z,11.79
2023-02-02T17:54:18.594Z,12.12
2023-02-02T17:56:47.290Z,12.00
2023-02-02T17:59:14.283Z,12.33
2023-02-02T18:01:44.355Z,12.21
2023-02-02T18:06:48.016Z,12.45
2023-02-02T18:09:15.010Z,12.33
2023-02-02T18:11:42.637Z,12.52
2023-02-02T18:34:08.865Z,12.73
2023-02-02T18:36:36.622Z,12.55
2023-02-02T18:39:03.668Z,12.65
2023-02-02T18:41:31.286Z,12.68
2023-02-02T18:43:58.354Z,12.52
2023-02-02T18:46:27.063Z,12.63
2023-02-02T18:51:36.842Z,12.58
2023-02-02T18:57:24.693Z,12.46
2023-02-02T19:02:47.271Z,12.65
2023-02-02T19:05:32.924Z,12.70
2023-02-02T19:08:03.592Z,12.85
2023-02-02T19:10:30.735Z,12.96
2023-02-02T19:13:03.620Z,12.96
2023-02-02T19:15:33.029Z,12.89
2023-02-02T19:18:02.374Z,12.78
2023-02-02T19:20:30.633Z,12.78
2023-02-02T19:23:07.386Z,12.63
2023-02-02T19:25:34.542Z,12.94
2023-02-02T19:28:09.232Z,12.55
2023-02-02T19:30:36.389Z,12.37
2023-02-02T19:33:11.265Z,12.64
2023-02-02T19:35:39.359Z,12.58
2023-02-02T19:38:13.399Z,12.69
2023-02-02T19:40:41.920Z,12.65
2023-02-02T19:43:25.320Z,12.71
2023-02-02T19:45:52.843Z,12.44
2023-02-02T19:48:23.622Z,12.48
2023-02-02T19:50:50.678Z,12.28
2023-02-02T19:53:23.367Z,12.28
2023-02-02T19:55:51.326Z,12.27
2023-02-02T19:58:21.509Z,12.24
2023-02-02T20:00:50.567Z,12.55
2023-02-02T20:03:20.459Z,12.41
2023-02-02T20:05:49.191Z,12.32
2023-02-02T20:08:24.330Z,12.34
2023-02-02T20:10:53.087Z,12.11
2023-02-02T20:13:22.165Z,12.15
2023-02-02T20:15:50.619Z,12.17
2023-02-02T20:18:21.179Z,12.22
2023-02-02T20:20:51.730Z,12.03
2023-02-02T20:23:30.244Z,12.18
2023-02-02T20:25:58.780Z,12.36
2023-02-02T20:31:07.045Z,12.35
2023-02-02T20:33:34.331Z,12.08
2023-02-02T20:36:02.770Z,12.13
2023-02-02T20:38:39.269Z,12.04
2023-02-02T20:41:06.958Z,12.40
2023-02-02T20:43:36.002Z,12.03
2023-02-02T20:46:03.580Z,12.30
2023-02-02T20:48:30.711Z,12.01
2023-02-02T20:50:57.834Z,12.14
2023-02-02T20:53:25.123Z,12.32
2023-02-02T20:55:58.193Z,12.20
2023-02-02T20:58:25.439Z,12.11
2023-02-02T21:00:52.544Z,12.23
2023-02-02T21:03:20.324Z,12.10
2023-02-02T21:05:47.507Z,12.17
2023-02-02T21:08:14.521Z,12.11
2023-02-02T21:10:41.575Z,12.02
2023-02-02T21:13:10.131Z,12.10
2023-02-02T21:15:37.219Z,11.96
2023-02-02T21:18:04.457Z,12.08
2023-02-02T21:20:31.773Z,11.84
2023-02-02T21:22:58.788Z,11.96
2023-02-02T21:25:25.833Z,12.18
2023-02-02T21:27:53.003Z,12.13
2023-02-02T21:30:21.681Z,12.09
2023-02-02T21:32:48.654Z,11.86
2023-02-02T21:35:15.893Z,12.13
2023-02-02T21:37:44.313Z,12.13
2023-02-02T21:40:14.833Z,11.95
2023-02-02T21:42:45.389Z,12.24
2023-02-02T21:45:32.246Z,12.44
2023-02-02T21:48:01.486Z,12.38
2023-02-02T21:50:31.785Z,12.34
